Ana Sayfa
METAR-TAF:

METAR-TAF

Havaalanları :

Tongatapu, Tonga

Enlem: 21-14S, Boylam: 175-09W, yükseklik: 38 m

Güncel hava durumu gözlemi

Rapor saat 19:00 UTC de 8 saat ve 17 dakika önce yapıldı.
Rüzgar güneydoğudan 7 kt
Sıcaklık 26°C
Nem 84%
Basınç 1010 hPa
Görüş mesafesi 10 km veya daha fazla
1000 ft yükseklikte az bulutlu

METAR: NFTF 231900Z 14007KT 9999 FEW010 26/23 Q1010

Saat: 16:17 (03:17 UTC)

Tahmin

Rapor saat 23:01 UTC de 4 saat ve 16 dakika önce yapıldı.
Ayın 24'si saat 00 UTC'den ayın 24'si saat 24 UTC'ye kadar geçerli Tahmin
Rüzgar güneydoğudan 10 kt
Görüş mesafesi 10 km veya daha fazla
900 ft yükseklikte az bulutlu
1600 ft yükseklikte parçalı bulutlu

TAF: NFTF 232301Z 2400/2424 14010KT 9999 FEW009 SCT016

4.000'den fazla havaalanı için hava durumu gözlemleri ve tahminleri (METAR ve TAF raporları).

Kullanılabilir istasyonlar harita üzerinde sarı ve kırmızı noktalarla gösterilir.

İstasyonun adını görmek için fareyi noktanın üzerinde gezdirin.

Sonrasında hava gözlem ve tahminlerini görmek için tıklayın.

Haritayı değiştirmek için: yaklaştırmak için siyah artı işaretli yeşil düğmeye ve uzaklaştırmak için de eksi işaretli düğmeye hızla tıklayın; bitişik haritalar için yeşil okları kullanın.


METAR-TAF: